createdAt,value
2023-01-11T00:00:36.137Z,1.40
2023-01-11T00:03:04.157Z,1.50
2023-01-11T00:05:30.794Z,1.45
2023-01-11T00:07:57.590Z,1.25
2023-01-11T00:10:24.403Z,1.95
2023-01-11T00:12:51.005Z,1.52
2023-01-11T00:15:17.680Z,1.83
2023-01-11T00:17:44.337Z,1.25
2023-01-11T00:20:11.032Z,1.45
2023-01-11T00:22:37.908Z,1.27
2023-01-11T00:25:04.714Z,1.50
2023-01-11T00:27:31.327Z,1.58
2023-01-11T00:29:58.295Z,1.55
2023-01-11T00:32:24.957Z,1.50
2023-01-11T00:34:51.563Z,1.27
2023-01-11T00:37:18.413Z,1.20
2023-01-11T00:39:45.118Z,1.00
2023-01-11T00:42:30.278Z,0.80
2023-01-11T00:45:15.816Z,1.17
2023-01-11T00:47:57.713Z,1.23
2023-01-11T00:50:24.960Z,1.08
2023-01-11T00:52:51.607Z,0.95
2023-01-11T00:55:18.194Z,1.10
2023-01-11T00:57:44.814Z,1.40
2023-01-11T01:00:11.751Z,1.00
2023-01-11T01:02:38.509Z,0.90
2023-01-11T01:05:05.518Z,0.93
2023-01-11T01:07:32.155Z,1.05
2023-01-11T01:09:58.751Z,1.08
2023-01-11T01:12:43.773Z,0.90
2023-01-11T01:15:10.636Z,0.85
2023-01-11T01:17:37.385Z,0.85
2023-01-11T01:20:04.240Z,1.00
2023-01-11T01:22:30.880Z,1.15
2023-01-11T01:24:57.612Z,0.77
2023-01-11T01:27:24.688Z,0.70
2023-01-11T01:29:51.267Z,0.85
2023-01-11T01:32:17.945Z,0.60
2023-01-11T01:34:44.510Z,0.80
2023-01-11T01:37:11.541Z,0.77
2023-01-11T01:39:38.107Z,0.80
2023-01-11T01:42:06.167Z,1.52
2023-01-11T01:44:51.339Z,0.90
2023-01-11T01:47:19.002Z,0.75
2023-01-11T01:49:46.014Z,0.88
2023-01-11T01:52:12.944Z,0.70
2023-01-11T01:54:42.414Z,0.80
2023-01-11T01:57:21.088Z,0.70
2023-01-11T01:59:51.665Z,0.65
2023-01-11T02:02:20.202Z,0.75
2023-01-11T02:04:47.992Z,0.68
2023-01-11T02:07:16.329Z,0.80
2023-01-11T02:09:59.274Z,0.85
2023-01-11T02:12:30.201Z,0.50
2023-01-11T02:14:59.540Z,0.80
2023-01-11T02:17:26.168Z,0.75
2023-01-11T02:20:08.223Z,0.60
2023-01-11T02:22:53.791Z,0.95
2023-01-11T02:25:40.516Z,0.60
2023-01-11T02:28:17.346Z,0.70
2023-01-11T02:30:44.017Z,0.60
2023-01-11T02:33:23.128Z,0.70
2023-01-11T02:35:59.292Z,0.90
2023-01-11T02:38:25.982Z,0.80
2023-01-11T02:41:15.602Z,0.70
2023-01-11T02:44:00.756Z,0.80
2023-01-11T02:46:33.062Z,0.70
2023-01-11T02:49:05.026Z,0.75
2023-01-11T02:51:35.462Z,0.85
2023-01-11T02:54:04.441Z,1.05
2023-01-11T02:56:33.470Z,0.68
2023-01-11T02:59:01.432Z,0.82
2023-01-11T03:01:28.238Z,0.68
2023-01-11T03:03:55.119Z,0.70
2023-01-11T03:06:31.174Z,0.73
2023-01-11T03:09:07.976Z,0.57
2023-01-11T03:11:59.223Z,0.70
2023-01-11T03:14:28.925Z,0.77
2023-01-11T03:16:55.507Z,0.73
2023-01-11T03:19:31.087Z,0.73
2023-01-11T03:22:17.772Z,0.85
2023-01-11T03:24:55.726Z,0.70
2023-01-11T03:27:42.565Z,0.52
2023-01-11T03:30:29.680Z,0.82
2023-01-11T03:33:05.183Z,0.80
2023-01-11T03:35:34.797Z,0.77
2023-01-11T03:38:04.811Z,0.80
2023-01-11T03:40:33.606Z,0.75
2023-01-11T03:43:11.359Z,0.88
2023-01-11T03:45:41.151Z,0.70
2023-01-11T03:48:09.943Z,0.60
2023-01-11T03:50:36.603Z,0.70
2023-01-11T03:53:04.889Z,0.65
2023-01-11T03:55:34.476Z,0.60
2023-01-11T03:58:01.149Z,0.80
2023-01-11T04:00:28.331Z,1.05
2023-01-11T04:02:54.950Z,1.00
2023-01-11T04:05:21.772Z,2.60
2023-01-11T04:07:48.813Z,1.10
2023-01-11T04:10:15.656Z,1.02
2023-01-11T04:12:42.215Z,0.82
2023-01-11T04:15:09.502Z,0.63
2023-01-11T04:17:36.338Z,0.65
2023-01-11T04:20:03.331Z,0.77
2023-01-11T04:22:30.218Z,0.90
2023-01-11T04:24:56.840Z,1.08
2023-01-11T04:27:23.479Z,0.77
2023-01-11T04:29:50.111Z,0.43
2023-01-11T04:32:16.895Z,0.70
2023-01-11T04:34:43.773Z,0.70
2023-01-11T04:37:12.013Z,0.70
2023-01-11T04:39:38.738Z,0.80
2023-01-11T04:42:21.117Z,0.75
2023-01-11T04:44:48.976Z,0.57
2023-01-11T04:47:16.167Z,0.65
2023-01-11T04:49:43.239Z,0.88
2023-01-11T04:52:10.671Z,0.57
2023-01-11T04:54:37.435Z,0.75
2023-01-11T04:57:04.198Z,0.60
2023-01-11T04:59:31.116Z,0.90
2023-01-11T05:01:58.100Z,0.70
2023-01-11T05:04:24.871Z,0.50
2023-01-11T05:06:51.643Z,0.73
2023-01-11T05:09:18.868Z,0.50
2023-01-11T05:11:45.578Z,0.47
2023-01-11T05:14:13.797Z,0.70
2023-01-11T05:16:40.599Z,0.68
2023-01-11T05:19:07.799Z,0.50
2023-01-11T05:21:35.563Z,0.50
2023-01-11T05:24:03.493Z,0.43
2023-01-11T05:26:34.439Z,0.60
2023-01-11T05:29:02.354Z,0.50
2023-01-11T05:31:29.504Z,0.80
2023-01-11T05:33:56.739Z,1.50
2023-01-11T05:36:24.273Z,0.73
2023-01-11T05:38:52.209Z,0.77
2023-01-11T05:41:19.733Z,0.60
2023-01-11T05:44:05.776Z,0.60
2023-01-11T05:46:33.075Z,0.63
2023-01-11T05:48:59.925Z,0.60
2023-01-11T05:51:27.256Z,0.68
2023-01-11T05:53:54.230Z,0.40
2023-01-11T05:56:21.045Z,0.60
2023-01-11T05:58:48.764Z,0.50
2023-01-11T06:01:16.049Z,0.60
2023-01-11T06:03:42.681Z,0.73
2023-01-11T06:06:09.385Z,0.55
2023-01-11T06:08:36.056Z,0.65
2023-01-11T06:11:02.706Z,0.45
2023-01-11T06:13:29.732Z,0.60
2023-01-11T06:16:25.959Z,0.73
2023-01-11T06:18:53.403Z,1.10
2023-01-11T06:21:20.642Z,1.00
2023-01-11T06:23:48.070Z,0.55
2023-01-11T06:26:16.391Z,1.10
2023-01-11T06:28:43.461Z,0.90
2023-01-11T06:31:10.185Z,0.80
2023-01-11T06:33:37.478Z,0.52
2023-01-11T06:36:05.848Z,0.80
2023-01-11T06:38:33.106Z,0.70
2023-01-11T06:41:00.762Z,0.50
2023-01-11T06:43:27.725Z,0.75
2023-01-11T06:45:54.795Z,0.70
2023-01-11T06:48:21.891Z,1.10
2023-01-11T06:50:49.288Z,1.05
2023-01-11T06:53:16.130Z,0.85
2023-01-11T06:55:42.853Z,0.90
2023-01-11T06:58:09.807Z,0.88
2023-01-11T07:00:36.938Z,0.60
2023-01-11T07:03:04.685Z,0.80
2023-01-11T07:05:35.293Z,0.70
2023-01-11T07:08:02.403Z,0.65
2023-01-11T07:10:29.340Z,0.70
2023-01-11T07:12:55.985Z,1.00
2023-01-11T07:15:22.893Z,0.60
2023-01-11T07:17:53.947Z,0.90
2023-01-11T07:20:20.535Z,0.70
2023-01-11T07:22:47.701Z,0.55
2023-01-11T07:25:14.682Z,0.80
2023-01-11T07:27:41.337Z,0.60
2023-01-11T07:30:09.931Z,1.13
2023-01-11T07:32:36.858Z,0.80
2023-01-11T07:35:04.108Z,0.85
2023-01-11T07:37:32.783Z,0.82
2023-01-11T07:39:59.641Z,0.70
2023-01-11T07:42:45.052Z,0.70
2023-01-11T07:45:12.001Z,0.65
2023-01-11T07:47:38.893Z,7.05
2023-01-11T07:50:05.799Z,8.02
2023-01-11T07:52:32.702Z,3.20
2023-01-11T07:55:02.632Z,1.73
2023-01-11T07:57:29.859Z,0.80
2023-01-11T07:59:56.637Z,0.82
2023-01-11T08:02:24.029Z,0.80
2023-01-11T08:04:50.864Z,0.60
2023-01-11T08:07:17.509Z,0.90
2023-01-11T08:09:44.336Z,1.02
2023-01-11T08:12:29.940Z,2.00
2023-01-11T08:14:56.698Z,1.50
2023-01-11T08:17:23.351Z,0.73
2023-01-11T08:19:50.185Z,1.10
2023-01-11T08:22:18.216Z,0.90
2023-01-11T08:24:44.856Z,0.90
2023-01-11T08:27:11.520Z,0.82
2023-01-11T08:29:46.369Z,0.90
2023-01-11T08:32:13.220Z,0.60
2023-01-11T08:34:40.158Z,0.77
2023-01-11T08:37:06.907Z,0.82
2023-01-11T08:39:33.611Z,0.85
2023-01-11T08:42:00.450Z,1.10
2023-01-11T08:44:34.200Z,0.50
2023-01-11T08:47:01.675Z,0.70
2023-01-11T08:49:30.729Z,1.10
2023-01-11T08:52:00.121Z,0.80
2023-01-11T08:54:26.851Z,0.70
2023-01-11T08:56:53.496Z,1.08
2023-01-11T08:59:22.033Z,0.88
2023-01-11T09:01:48.943Z,0.70
2023-01-11T09:04:24.597Z,0.50
2023-01-11T09:06:52.846Z,0.50
2023-01-11T09:09:19.571Z,0.60
2023-01-11T09:11:56.498Z,0.60
2023-01-11T09:14:27.131Z,0.40
2023-01-11T09:16:54.737Z,1.13
2023-01-11T09:19:21.859Z,1.80
2023-01-11T09:21:48.687Z,1.88
2023-01-11T09:24:16.323Z,1.65
2023-01-11T09:26:43.637Z,1.40
2023-01-11T09:29:10.720Z,1.08
2023-01-11T09:31:37.487Z,0.80
2023-01-11T09:34:04.984Z,0.70
2023-01-11T09:36:33.087Z,0.57
2023-01-11T09:39:01.836Z,0.68
2023-01-11T09:41:49.379Z,0.50
2023-01-11T09:44:19.205Z,0.73
2023-01-11T09:46:49.375Z,0.60
2023-01-11T09:49:22.903Z,0.65
2023-01-11T09:51:51.464Z,0.60
2023-01-11T09:54:26.210Z,0.60
2023-01-11T09:57:10.738Z,0.80
2023-01-11T09:59:48.528Z,0.70
2023-01-11T10:02:23.440Z,0.93
2023-01-11T10:05:01.295Z,0.80
2023-01-11T10:07:34.717Z,1.00
2023-01-11T10:18:29.963Z,2.03
2023-01-11T10:19:35.992Z,1.67
2023-01-11T10:22:08.238Z,1.30
2023-01-11T10:24:42.257Z,1.02
2023-01-11T10:27:43.119Z,0.80
2023-01-11T10:30:32.423Z,0.57
2023-01-11T10:33:29.152Z,1.02
2023-01-11T10:36:44.814Z,0.57
2023-01-11T10:40:02.939Z,0.68
2023-01-11T10:42:31.322Z,0.88
2023-01-11T10:45:02.736Z,0.90
2023-01-11T10:47:33.862Z,0.60
2023-01-11T10:50:23.537Z,0.73
2023-01-11T10:52:54.308Z,0.63
2023-01-11T10:55:27.495Z,0.90
2023-01-11T10:58:26.795Z,0.70
2023-01-11T11:01:04.085Z,0.80
2023-01-11T11:03:54.098Z,0.63
2023-01-11T11:06:36.122Z,0.63
2023-01-11T11:09:10.707Z,0.70
2023-01-11T11:12:03.603Z,0.60
2023-01-11T11:14:39.951Z,0.90
2023-01-11T11:17:25.632Z,0.75
2023-01-11T11:19:53.321Z,0.75
2023-01-11T11:22:21.113Z,1.17
2023-01-11T11:24:49.843Z,1.08
2023-01-11T11:27:19.577Z,0.80
2023-01-11T11:29:50.904Z,0.50
2023-01-11T11:32:24.523Z,0.70
2023-01-11T11:34:51.728Z,0.80
2023-01-11T11:37:26.932Z,1.27
2023-01-11T11:39:54.202Z,2.60
2023-01-11T11:42:21.914Z,4.00
2023-01-11T11:45:07.068Z,1.50
2023-01-11T11:47:33.862Z,0.98
2023-01-11T11:50:27.369Z,0.93
2023-01-11T11:53:04.573Z,1.00
2023-01-11T11:55:32.487Z,1.30
2023-01-11T11:58:03.424Z,0.90
2023-01-11T12:00:31.700Z,0.93
2023-01-11T12:03:01.221Z,1.00
2023-01-11T12:05:28.038Z,0.90
2023-01-11T12:07:55.803Z,1.90
2023-01-11T12:10:27.044Z,1.13
2023-01-11T12:12:55.198Z,0.80
2023-01-11T12:15:21.967Z,0.77
2023-01-11T12:17:49.077Z,0.95
2023-01-11T12:20:32.893Z,0.80
2023-01-11T12:23:12.565Z,0.80
2023-01-11T12:25:45.869Z,0.60
2023-01-11T12:28:26.141Z,0.85
2023-01-11T12:30:53.091Z,0.95
2023-01-11T12:33:49.178Z,0.85
2023-01-11T12:36:34.678Z,0.80
2023-01-11T12:39:07.120Z,0.70
2023-01-11T12:41:47.645Z,0.70
2023-01-11T12:44:29.511Z,0.70
2023-01-11T12:47:17.976Z,0.90
2023-01-11T12:49:44.798Z,0.60
2023-01-11T12:52:14.976Z,0.60
2023-01-11T12:55:01.881Z,0.70
2023-01-11T12:57:38.059Z,0.70
2023-01-11T13:00:07.600Z,0.63
2023-01-11T13:02:52.877Z,0.60
2023-01-11T13:05:23.671Z,0.60
2023-01-11T13:07:50.321Z,0.90
2023-01-11T13:10:28.814Z,0.70
2023-01-11T13:13:01.058Z,1.40
2023-01-11T13:15:34.640Z,0.88
2023-01-11T13:18:07.291Z,0.73
2023-01-11T13:21:00.119Z,0.80
2023-01-11T13:23:44.517Z,0.80
2023-01-11T13:26:11.180Z,1.00
2023-01-11T13:28:39.531Z,0.90
2023-01-11T13:31:07.728Z,0.60
2023-01-11T13:33:35.978Z,0.63
2023-01-11T13:36:09.711Z,0.70
2023-01-11T13:38:45.030Z,0.82
2023-01-11T13:41:14.123Z,0.65
2023-01-11T13:43:40.878Z,1.00
2023-01-11T13:46:14.358Z,0.70
2023-01-11T13:48:43.028Z,0.55
2023-01-11T13:51:31.396Z,0.73
2023-01-11T13:54:05.251Z,0.95
2023-01-11T13:56:34.219Z,0.95
2023-01-11T13:59:15.275Z,1.00
2023-01-11T14:01:44.650Z,0.80
2023-01-11T14:04:30.061Z,1.00
2023-01-11T14:07:08.643Z,1.42
2023-01-11T14:10:04.411Z,0.77
2023-01-11T14:12:42.965Z,0.65
2023-01-11T14:15:09.633Z,1.33
2023-01-11T14:17:51.553Z,1.20
2023-01-11T14:20:18.164Z,1.17
2023-01-11T14:22:48.086Z,0.70
2023-01-11T14:25:23.035Z,1.05
2023-01-11T14:27:49.658Z,1.00
2023-01-11T14:30:34.955Z,1.00
2023-01-11T14:33:20.310Z,0.80
2023-01-11T14:35:59.341Z,1.02
2023-01-11T14:38:41.736Z,0.90
2023-01-11T14:41:27.324Z,1.10
2023-01-11T14:44:02.767Z,1.00
2023-01-11T14:46:49.856Z,1.15
2023-01-11T14:49:31.692Z,0.93
2023-01-11T14:52:00.507Z,1.20
2023-01-11T14:54:30.254Z,1.10
2023-01-11T14:56:59.790Z,0.90
2023-01-11T14:59:33.392Z,1.60
2023-01-11T15:02:02.921Z,0.90
2023-01-11T15:04:58.811Z,1.00
2023-01-11T15:07:31.493Z,0.80
2023-01-11T15:09:59.150Z,0.82
2023-01-11T15:12:33.383Z,1.00
2023-01-11T15:15:07.877Z,0.82
2023-01-11T15:17:53.280Z,0.93
2023-01-11T15:20:20.954Z,0.90
2023-01-11T15:22:55.599Z,1.10
2023-01-11T15:25:23.456Z,1.00
2023-01-11T15:27:51.143Z,1.33
2023-01-11T15:30:34.663Z,1.00
2023-01-11T15:33:19.712Z,1.00
2023-01-11T15:35:55.565Z,1.65
2023-01-11T15:38:22.244Z,1.23
2023-01-11T15:40:50.369Z,0.80
2023-01-11T15:43:29.356Z,0.98
2023-01-11T15:46:33.388Z,1.10
2023-01-11T15:49:08.989Z,0.70
2023-01-11T15:51:35.668Z,1.20
2023-01-11T15:54:08.377Z,1.10
2023-01-11T15:57:01.256Z,0.80
2023-01-11T15:59:55.755Z,0.90
2023-01-11T16:02:42.784Z,0.95
2023-01-11T16:05:21.655Z,0.88
2023-01-11T16:08:09.673Z,1.17
2023-01-11T16:10:36.551Z,1.20
2023-01-11T16:13:24.448Z,1.55
2023-01-11T16:16:01.830Z,1.20
2023-01-11T16:18:34.215Z,1.48
2023-01-11T16:21:03.699Z,1.10
2023-01-11T16:23:31.655Z,1.00
2023-01-11T16:25:58.892Z,1.33
2023-01-11T16:28:26.539Z,1.20
2023-01-11T16:31:03.932Z,1.50
2023-01-11T16:33:32.070Z,1.30
2023-01-11T16:36:08.440Z,1.30
2023-01-11T16:38:39.881Z,1.30
2023-01-11T16:41:07.137Z,1.60
2023-01-11T16:43:34.950Z,1.30
2023-01-11T16:46:01.678Z,1.50
2023-01-11T16:48:32.192Z,1.40
2023-01-11T16:51:04.907Z,1.10
2023-01-11T16:53:35.556Z,1.23
2023-01-11T16:56:07.509Z,1.42
2023-01-11T16:58:35.488Z,1.02
2023-01-11T17:01:06.653Z,1.60
2023-01-11T17:03:34.723Z,1.50
2023-01-11T17:06:22.746Z,1.25
2023-01-11T17:08:56.719Z,1.40
2023-01-11T17:11:25.896Z,1.35
2023-01-11T17:14:01.661Z,1.40
2023-01-11T17:16:30.079Z,1.48
2023-01-11T17:18:58.786Z,1.50
2023-01-11T17:21:27.243Z,1.30
2023-01-11T17:24:04.435Z,1.33
2023-01-11T17:26:33.570Z,1.13
2023-01-11T17:29:01.611Z,1.40
2023-01-11T17:31:34.250Z,1.35
2023-01-11T17:34:13.108Z,1.50
2023-01-11T17:36:40.879Z,1.10
2023-01-11T17:39:08.355Z,1.20
2023-01-11T17:41:53.747Z,1.48
2023-01-11T17:44:40.115Z,1.40
2023-01-11T17:47:08.538Z,1.50
2023-01-11T17:49:36.884Z,1.23
2023-01-11T17:52:18.963Z,1.20
2023-01-11T17:54:45.737Z,1.10
2023-01-11T17:57:13.584Z,1.38
2023-01-11T17:59:40.731Z,1.20
2023-01-11T18:02:14.317Z,1.20
2023-01-11T18:04:41.591Z,1.10
2023-01-11T18:07:18.670Z,1.75
2023-01-11T18:09:49.753Z,1.13
2023-01-11T18:12:17.020Z,1.30
2023-01-11T18:14:48.846Z,1.05
2023-01-11T18:17:30.764Z,1.25
2023-01-11T18:19:57.636Z,1.35
2023-01-11T18:22:35.185Z,1.10
2023-01-11T18:25:04.670Z,0.90
2023-01-11T18:27:35.245Z,1.10
2023-01-11T18:30:06.167Z,1.08
2023-01-11T18:32:34.536Z,0.90
2023-01-11T18:35:01.392Z,1.27
2023-01-11T18:37:28.633Z,1.20
2023-01-11T18:39:55.721Z,1.20
2023-01-11T18:42:24.462Z,1.00
2023-01-11T18:44:51.389Z,1.30
2023-01-11T18:47:22.111Z,1.13
2023-01-11T18:49:49.839Z,1.40
2023-01-11T18:52:17.121Z,1.60
2023-01-11T18:54:44.013Z,1.90
2023-01-11T18:57:10.877Z,1.60
2023-01-11T18:59:37.787Z,2.50
2023-01-11T19:02:16.963Z,2.28
2023-01-11T19:04:44.857Z,1.80
2023-01-11T19:07:11.902Z,1.70
2023-01-11T19:09:38.560Z,1.65
2023-01-11T19:12:05.443Z,1.40
2023-01-11T19:14:32.121Z,1.70
2023-01-11T19:16:58.852Z,1.73
2023-01-11T19:19:25.523Z,1.60
2023-01-11T19:21:52.191Z,1.40
2023-01-11T19:24:18.820Z,1.52
2023-01-11T19:26:45.578Z,1.10
2023-01-11T19:29:16.571Z,1.00
2023-01-11T19:31:47.189Z,1.00
2023-01-11T19:34:14.206Z,0.90
2023-01-11T19:36:41.216Z,1.02
2023-01-11T19:39:08.526Z,0.95
2023-01-11T19:41:54.150Z,0.95
2023-01-11T19:44:21.508Z,1.27
2023-01-11T19:46:53.083Z,1.27
2023-01-11T19:49:23.936Z,1.30
2023-01-11T19:51:50.693Z,1.00
2023-01-11T19:54:20.679Z,0.80
2023-01-11T19:56:49.224Z,0.88
2023-01-11T19:59:15.987Z,1.00
2023-01-11T20:01:42.793Z,1.02
2023-01-11T20:04:10.878Z,1.02
2023-01-11T20:06:38.759Z,1.00
2023-01-11T20:09:05.446Z,0.98
2023-01-11T20:11:32.211Z,1.35
2023-01-11T20:13:58.878Z,0.90
2023-01-11T20:16:25.851Z,0.93
2023-01-11T20:18:56.451Z,1.20
2023-01-11T20:21:24.313Z,1.00
2023-01-11T20:23:51.163Z,1.02
2023-01-11T20:26:18.047Z,1.00
2023-01-11T20:28:49.166Z,0.88
2023-01-11T20:31:17.391Z,1.23
2023-01-11T20:33:44.623Z,1.38
2023-01-11T20:36:12.532Z,1.33
2023-01-11T20:38:42.536Z,1.27
2023-01-11T20:41:10.480Z,1.20
2023-01-11T20:43:38.495Z,1.08
2023-01-11T20:46:06.435Z,1.05
2023-01-11T20:48:35.753Z,1.42
2023-01-11T20:51:03.124Z,1.20
2023-01-11T20:53:29.858Z,1.30
2023-01-11T20:55:57.136Z,1.42
2023-01-11T20:58:23.932Z,1.40
2023-01-11T21:00:50.630Z,1.50
2023-01-11T21:03:20.006Z,1.60
2023-01-11T21:05:46.657Z,1.50
2023-01-11T21:08:13.326Z,1.52
2023-01-11T21:10:40.030Z,2.08
2023-01-11T21:13:06.934Z,1.60
2023-01-11T21:15:33.650Z,1.33
2023-01-11T21:18:00.260Z,1.40
2023-01-11T21:20:26.953Z,1.65
2023-01-11T21:22:53.595Z,1.70
2023-01-11T21:25:20.298Z,1.58
2023-01-11T21:27:46.932Z,1.90
2023-01-11T21:30:13.725Z,1.70
2023-01-11T21:32:40.494Z,1.77
2023-01-11T21:35:07.446Z,1.58
2023-01-11T21:37:34.194Z,1.40
2023-01-11T21:40:00.912Z,1.50
2023-01-11T21:42:27.679Z,1.50
2023-01-11T21:44:54.525Z,1.50
2023-01-11T21:47:22.288Z,1.27
2023-01-11T21:49:49.013Z,1.13
2023-01-11T21:52:15.718Z,1.35
2023-01-11T21:54:42.501Z,1.60
2023-01-11T21:57:09.182Z,1.42
2023-01-11T21:59:35.869Z,1.42
2023-01-11T22:02:02.647Z,1.30
2023-01-11T22:04:29.353Z,1.83
2023-01-11T22:06:58.420Z,1.40
2023-01-11T22:09:26.619Z,1.30
2023-01-11T22:11:53.404Z,1.33
2023-01-11T22:14:20.108Z,1.48
2023-01-11T22:16:47.121Z,1.63
2023-01-11T22:19:13.828Z,1.27
2023-01-11T22:21:40.585Z,1.27
2023-01-11T22:24:10.418Z,1.70
2023-01-11T22:26:38.847Z,1.60
2023-01-11T22:29:12.368Z,1.30
2023-01-11T22:31:40.735Z,1.40
2023-01-11T22:34:07.870Z,1.58
2023-01-11T22:36:34.732Z,1.40
2023-01-11T22:39:01.558Z,1.60
2023-01-11T22:41:28.389Z,1.88
2023-01-11T22:43:55.571Z,1.52
2023-01-11T22:46:23.274Z,2.25
2023-01-11T22:48:50.470Z,1.75
2023-01-11T22:51:18.348Z,1.63
2023-01-11T22:53:46.004Z,1.48
2023-01-11T22:56:14.077Z,1.95
2023-01-11T22:58:40.921Z,1.42
2023-01-11T23:01:18.310Z,1.55
2023-01-11T23:03:48.286Z,2.13
2023-01-11T23:06:19.377Z,1.30
2023-01-11T23:08:46.238Z,1.50
2023-01-11T23:11:14.737Z,1.65
2023-01-11T23:13:55.043Z,1.23
2023-01-11T23:16:22.405Z,1.65
2023-01-11T23:18:49.120Z,1.33
2023-01-11T23:21:16.636Z,1.20
2023-01-11T23:23:43.304Z,1.70
2023-01-11T23:26:11.865Z,1.10
2023-01-11T23:28:39.369Z,1.65
2023-01-11T23:31:16.293Z,1.50
2023-01-11T23:33:44.783Z,1.55
2023-01-11T23:36:11.899Z,1.10
2023-01-11T23:38:38.603Z,1.10
2023-01-11T23:41:27.986Z,1.30
2023-01-11T23:43:54.917Z,1.45
2023-01-11T23:46:40.950Z,1.77
2023-01-11T23:49:08.434Z,1.08
2023-01-11T23:51:35.913Z,1.35
2023-01-11T23:54:05.085Z,1.58
2023-01-11T23:56:31.825Z,1.10
2023-01-11T23:58:58.520Z,1.02
